createdAt,value
2023-01-26T00:01:09.453Z,33.97
2023-01-26T00:05:08.219Z,35.30
2023-01-26T00:10:08.565Z,37.38
2023-01-26T00:15:08.471Z,38.08
2023-01-26T00:20:08.438Z,34.78
2023-01-26T00:25:08.291Z,34.88
2023-01-26T00:30:08.172Z,37.95
2023-01-26T00:35:08.011Z,38.67
2023-01-26T00:40:07.894Z,40.33
2023-01-26T00:45:07.813Z,38.80
2023-01-26T00:50:08.822Z,40.88
2023-01-26T00:55:07.889Z,35.97
2023-01-26T01:00:08.798Z,33.88
2023-01-26T01:05:08.741Z,37.33
2023-01-26T01:10:09.092Z,37.25
2023-01-26T01:15:07.964Z,34.50
2023-01-26T01:20:07.984Z,37.00
2023-01-26T01:25:07.952Z,35.58
2023-01-26T01:30:07.908Z,35.60
2023-01-26T01:35:07.865Z,34.72
2023-01-26T01:40:09.000Z,36.70
2023-01-26T01:45:08.009Z,33.65
2023-01-26T01:50:08.051Z,33.67
2023-01-26T01:55:08.026Z,34.08
2023-01-26T02:00:07.797Z,33.65
2023-01-26T02:05:08.617Z,31.45
2023-01-26T02:10:08.789Z,31.45
2023-01-26T02:15:08.667Z,33.72
2023-01-26T02:20:08.703Z,33.63
2023-01-26T02:25:08.654Z,30.77
2023-01-26T02:30:08.733Z,32.25
2023-01-26T02:35:08.726Z,31.60
2023-01-26T02:40:09.119Z,31.77
2023-01-26T02:45:08.007Z,32.67
2023-01-26T02:50:07.828Z,32.95
2023-01-26T02:55:08.653Z,30.30
2023-01-26T03:00:08.524Z,29.27
2023-01-26T03:05:08.360Z,30.27
2023-01-26T03:10:08.271Z,30.65
2023-01-26T03:15:08.169Z,30.15
2023-01-26T03:20:08.177Z,30.58
2023-01-26T03:25:08.060Z,29.75
2023-01-26T03:30:08.764Z,27.50
2023-01-26T03:35:08.682Z,25.45
2023-01-26T03:40:08.724Z,29.08
2023-01-26T03:45:08.617Z,30.25
2023-01-26T03:50:08.765Z,24.92
2023-01-26T03:55:08.700Z,24.70
2023-01-26T04:00:08.808Z,23.20
2023-01-26T04:05:07.734Z,22.52
2023-01-26T04:10:08.581Z,21.98
2023-01-26T04:15:08.415Z,22.83
2023-01-26T04:20:08.301Z,22.80
2023-01-26T04:25:08.140Z,20.75
2023-01-26T04:30:07.954Z,22.00
2023-01-26T04:35:07.759Z,20.63
2023-01-26T04:40:08.723Z,21.65
2023-01-26T04:45:08.570Z,24.10
2023-01-26T04:50:08.398Z,21.35
2023-01-26T04:55:08.211Z,19.17
2023-01-26T05:00:08.052Z,19.15
2023-01-26T05:05:01.998Z,18.70
2023-01-26T05:10:02.017Z,18.30
2023-01-26T05:15:02.030Z,18.88
2023-01-26T05:20:01.964Z,17.88
2023-01-26T05:25:01.957Z,17.70
2023-01-26T05:30:02.008Z,18.10
2023-01-26T05:35:02.048Z,19.65
2023-01-26T05:40:02.051Z,16.77
2023-01-26T05:45:01.994Z,15.63
2023-01-26T05:50:02.071Z,17.40
2023-01-26T05:55:02.130Z,15.45
2023-01-26T06:00:02.072Z,16.15
2023-01-26T06:05:02.000Z,15.80
2023-01-26T06:10:01.978Z,13.82
2023-01-26T06:15:01.956Z,13.30
2023-01-26T06:20:01.992Z,13.05
2023-01-26T06:25:01.996Z,13.57
2023-01-26T06:30:01.897Z,13.30
2023-01-26T06:35:02.803Z,12.98
2023-01-26T06:40:02.867Z,13.43
2023-01-26T06:45:02.911Z,12.73
2023-01-26T06:50:02.830Z,13.68
2023-01-26T06:55:02.966Z,12.85
2023-01-26T07:00:01.882Z,13.70
2023-01-26T07:05:03.420Z,12.88
2023-01-26T07:10:02.340Z,11.98
2023-01-26T07:15:02.374Z,12.90
2023-01-26T07:20:02.344Z,11.80
2023-01-26T07:25:02.379Z,11.55
2023-01-26T07:30:02.336Z,11.75
2023-01-26T07:35:02.237Z,11.27
2023-01-26T07:40:02.179Z,10.27
2023-01-26T07:45:02.295Z,11.60
2023-01-26T07:50:02.265Z,12.35
2023-01-26T07:55:02.265Z,11.75
2023-01-26T08:00:02.332Z,11.32
2023-01-26T08:05:02.404Z,11.32
2023-01-26T08:10:02.546Z,9.98
2023-01-26T08:15:02.539Z,10.48
2023-01-26T08:20:02.562Z,10.75
2023-01-26T08:25:02.501Z,10.60
2023-01-26T08:30:02.554Z,11.27
2023-01-26T08:35:03.079Z,12.00
2023-01-26T08:40:02.123Z,12.02
2023-01-26T08:45:02.072Z,11.65
2023-01-26T08:50:02.085Z,11.60
2023-01-26T08:55:02.097Z,11.52
2023-01-26T09:00:01.971Z,10.85
2023-01-26T09:05:02.163Z,12.55
2023-01-26T09:10:01.998Z,12.18
2023-01-26T09:15:02.222Z,12.18
2023-01-26T09:20:02.226Z,12.27
2023-01-26T09:25:02.436Z,11.23
2023-01-26T09:30:02.513Z,10.80
2023-01-26T09:35:02.525Z,11.70
2023-01-26T09:40:02.491Z,11.15
2023-01-26T09:45:12.821Z,0
2023-01-26T09:50:01.950Z,12.45
2023-01-26T09:55:01.935Z,12.13
2023-01-26T10:00:02.890Z,11.98
2023-01-26T10:05:02.991Z,12.50
2023-01-26T10:10:01.971Z,10.60
2023-01-26T10:15:01.989Z,11.63
2023-01-26T10:20:02.021Z,12.45
2023-01-26T10:25:02.055Z,12.48
2023-01-26T10:30:02.008Z,13.52
2023-01-26T10:35:02.217Z,12.18
2023-01-26T10:40:02.200Z,13.75
2023-01-26T10:45:02.205Z,12.55
2023-01-26T10:50:02.201Z,12.13
2023-01-26T10:55:02.243Z,12.95
2023-01-26T11:00:02.273Z,12.57
2023-01-26T11:05:02.331Z,12.75
2023-01-26T11:10:02.368Z,13.40
2023-01-26T11:15:02.484Z,12.63
2023-01-26T11:20:12.390Z,0
2023-01-26T11:25:02.375Z,12.57
2023-01-26T11:30:02.354Z,12.38
2023-01-26T11:35:02.276Z,14.90
2023-01-26T11:40:02.229Z,14.43
2023-01-26T11:45:02.214Z,14.55
2023-01-26T11:50:02.204Z,16.23
2023-01-26T11:55:02.180Z,15.98
2023-01-26T12:00:02.215Z,14.75
2023-01-26T12:05:02.470Z,15.95
2023-01-26T12:10:02.724Z,13.60
2023-01-26T12:15:04.314Z,13.20
2023-01-26T12:20:02.827Z,11.48
2023-01-26T12:25:28.565Z,14.93
2023-01-26T12:30:02.788Z,12.13
2023-01-26T12:35:02.688Z,12.57
2023-01-26T12:40:02.789Z,10.55
2023-01-26T12:45:02.763Z,10.95
2023-01-26T12:50:02.765Z,10.07
2023-01-26T12:55:02.741Z,9.65
2023-01-26T13:00:02.686Z,8.93
2023-01-26T13:05:02.745Z,8.88
2023-01-26T13:10:02.714Z,8.75
2023-01-26T13:15:03.484Z,7.78
2023-01-26T13:20:02.328Z,6.55
2023-01-26T13:25:02.287Z,7.43
2023-01-26T13:30:02.267Z,7.40
2023-01-26T13:35:05.425Z,7.63
2023-01-26T13:40:02.641Z,7.40
2023-01-26T13:45:02.597Z,8.13
2023-01-26T13:50:02.539Z,7.15
2023-01-26T13:55:02.534Z,7.30
2023-01-26T14:00:02.462Z,7.32
2023-01-26T14:05:02.358Z,6.15
2023-01-26T14:10:02.420Z,6.65
2023-01-26T14:15:02.387Z,7.82
2023-01-26T14:20:02.378Z,6.38
2023-01-26T14:25:02.368Z,6.15
2023-01-26T14:30:02.326Z,7.13
2023-01-26T14:35:02.208Z,5.80
2023-01-26T14:40:12.538Z,0
2023-01-26T14:45:02.677Z,8.55
2023-01-26T14:50:02.645Z,7.55
2023-01-26T14:55:02.625Z,7.78
2023-01-26T15:00:02.537Z,9.80
2023-01-26T15:05:02.496Z,8.48
2023-01-26T15:10:02.468Z,6.28
2023-01-26T15:15:02.433Z,4.95
2023-01-26T15:20:02.500Z,5.05
2023-01-26T15:25:02.498Z,6.38
2023-01-26T15:30:02.536Z,5.53
2023-01-26T15:35:02.411Z,5.70
2023-01-26T15:40:02.516Z,5.30
2023-01-26T15:45:02.646Z,4.32
2023-01-26T15:50:02.513Z,6.45
2023-01-26T15:55:03.153Z,4.95
2023-01-26T16:00:02.876Z,3.60
2023-01-26T16:05:03.029Z,5.10
2023-01-26T16:10:02.551Z,5.20
2023-01-26T16:15:02.869Z,4.45
2023-01-26T16:20:03.559Z,3.92
2023-01-26T16:25:02.894Z,4.63
2023-01-26T16:30:04.016Z,4.97
2023-01-26T16:35:02.847Z,5.93
2023-01-26T16:40:03.518Z,6.93
2023-01-26T16:45:04.735Z,6.15
2023-01-26T16:50:03.828Z,4.40
2023-01-26T16:55:03.123Z,3.03
2023-01-26T17:00:07.674Z,4.38
2023-01-26T17:05:04.348Z,4.75
2023-01-26T17:10:02.772Z,4.10
2023-01-26T17:15:02.854Z,3.95
2023-01-26T17:20:18.050Z,2.60
2023-01-26T17:25:02.584Z,2.75
2023-01-26T17:30:03.224Z,3.35
2023-01-26T17:35:02.460Z,3.47
2023-01-26T17:40:03.877Z,3.08
2023-01-26T17:45:05.675Z,4.25
2023-01-26T17:50:04.133Z,3.20
2023-01-26T17:50:35.212Z,3.20
2023-01-26T17:51:12.349Z,3.20
2023-01-26T17:55:06.381Z,3.33
2023-01-26T18:00:03.954Z,3.53
2023-01-26T18:05:02.229Z,4.60
2023-01-26T18:10:02.662Z,4.55
2023-01-26T18:15:06.066Z,2.85
2023-01-26T18:20:07.234Z,2.60
2023-01-26T18:25:02.706Z,2.03
2023-01-26T18:30:04.385Z,2.40
2023-01-26T18:35:04.054Z,3.85
2023-01-26T18:40:07.123Z,3.58
2023-01-26T18:45:02.341Z,2.60
2023-01-26T18:50:08.029Z,2.65
2023-01-26T18:55:02.866Z,3.67
2023-01-26T19:00:04.037Z,3.45
2023-01-26T19:05:03.984Z,3.17
2023-01-26T19:10:05.016Z,3.28
2023-01-26T19:15:02.896Z,2.58
2023-01-26T19:20:05.251Z,2.67
2023-01-26T19:25:03.146Z,3.45
2023-01-26T19:30:03.368Z,2.70
2023-01-26T19:35:05.191Z,2.47
2023-01-26T19:40:02.548Z,3.15
2023-01-26T19:45:03.969Z,2.42
2023-01-26T19:50:13.917Z,2.22
2023-01-26T19:55:03.030Z,2.13
2023-01-26T20:00:02.844Z,2.63
2023-01-26T20:05:03.299Z,1.98
2023-01-26T20:10:02.451Z,2.40
2023-01-26T20:15:03.036Z,2.38
2023-01-26T20:20:02.296Z,2.67
2023-01-26T20:25:02.383Z,2.88
2023-01-26T20:30:03.369Z,2.90
2023-01-26T20:35:02.335Z,2.45
2023-01-26T20:40:02.555Z,2.25
2023-01-26T20:45:03.148Z,2.75
2023-01-26T20:50:02.336Z,2.30
2023-01-26T20:55:03.437Z,2.75
2023-01-26T21:00:03.406Z,2.30
2023-01-26T21:05:04.569Z,2.30
2023-01-26T21:10:03.020Z,2.67
2023-01-26T21:15:03.617Z,3.40
2023-01-26T21:20:03.531Z,3.08
2023-01-26T21:25:02.742Z,2.65
2023-01-26T21:30:04.311Z,3.00
2023-01-26T21:35:04.840Z,2.55
2023-01-26T21:40:03.175Z,2.22
2023-01-26T21:45:03.523Z,2.40
2023-01-26T21:50:03.652Z,1.90
2023-01-26T21:55:03.293Z,2.42
2023-01-26T22:00:02.850Z,2.00
2023-01-26T22:05:15.691Z,2.50
2023-01-26T22:10:08.581Z,1.90
2023-01-26T22:15:08.562Z,2.35
2023-01-26T22:20:08.465Z,2.05
2023-01-26T22:25:08.309Z,1.80
2023-01-26T22:30:08.238Z,1.88
2023-01-26T22:35:08.118Z,2.08
2023-01-26T22:40:08.004Z,2.38
2023-01-26T22:45:07.922Z,2.22
2023-01-26T22:50:08.856Z,2.40
2023-01-26T22:55:08.735Z,2.45
2023-01-26T23:00:08.655Z,2.78
2023-01-26T23:05:08.543Z,2.58
2023-01-26T23:10:08.561Z,2.40
2023-01-26T23:15:08.460Z,2.05
2023-01-26T23:20:08.362Z,2.08
2023-01-26T23:25:08.268Z,1.80
2023-01-26T23:30:08.154Z,2.05
2023-01-26T23:35:08.093Z,2.15
2023-01-26T23:40:07.997Z,2.17
2023-01-26T23:45:07.871Z,2.20
2023-01-26T23:50:08.783Z,2.42
2023-01-26T23:55:08.623Z,2.70
